Terminal Aerodrome Forecast
Issued by NWS

Home | Current Version | Previous Version | Text Only | Print | Product List | Glossary On
Versions: 1 2 3 4 5 6 7 8 9 10 11 12 13 14
000
FTAK31 PAJN 171700
TAFAJN
TAF
PAJN 171725Z 1718/1818 08007KT P6SM VCSH FEW005 SCT025 BKN040
     FM172200 10006KT P6SM SCT030 BKN080
     FM180200 09005KT P6SM FEW002 BKN080
     FM180600 09005KT 6SM BR VCSH FEW002 BKN050
      TEMPO 1811/1815 3SM BR SCT002 BKN050
     FM181500 11007KT P6SM VCSH BKN040 OVC050=

USA.gov is the U.S. government's official web portal to all federal, state and local government web resources and services.